createdAt,value
2023-01-18T00:01:54.970Z,6
2023-01-18T00:06:49.256Z,6
2023-01-18T00:11:48.764Z,3
2023-01-18T00:16:49.245Z,2
2023-01-18T00:21:48.765Z,3
2023-01-18T00:26:48.763Z,2
2023-01-18T00:31:49.286Z,2
2023-01-18T00:36:48.775Z,2
2023-01-18T00:41:48.936Z,2
2023-01-18T00:46:49.559Z,2
2023-01-18T00:51:48.793Z,2
2023-01-18T00:56:48.806Z,1
2023-01-18T01:01:49.025Z,2
2023-01-18T01:06:49.436Z,2
2023-01-18T01:11:48.914Z,2
2023-01-18T01:16:48.912Z,1
2023-01-18T01:21:49.475Z,2
2023-01-18T01:26:48.856Z,3
2023-01-18T01:31:48.990Z,2
2023-01-18T01:36:48.872Z,2
2023-01-18T01:41:49.543Z,2
2023-01-18T01:46:54.528Z,2
2023-01-18T01:51:50.110Z,3
2023-01-18T01:57:04.015Z,2
2023-01-18T02:01:49.151Z,2
2023-01-18T02:07:04.013Z,1
2023-01-18T02:11:49.546Z,1
2023-01-18T02:16:54.472Z,2
2023-01-18T02:21:49.687Z,2
2023-01-18T02:26:48.978Z,3
2023-01-18T02:31:48.966Z,2
2023-01-18T02:36:49.017Z,2
2023-01-18T02:41:48.991Z,2
2023-01-18T02:46:50.214Z,2
2023-01-18T02:51:49.005Z,2
2023-01-18T02:56:49.663Z,2
2023-01-18T03:01:49.093Z,2
2023-01-18T03:06:49.180Z,2
2023-01-18T03:11:55.725Z,3
2023-01-18T03:16:49.056Z,3
2023-01-18T03:21:49.068Z,2
2023-01-18T03:26:49.720Z,2
2023-01-18T03:31:49.104Z,2
2023-01-18T03:36:49.678Z,2
2023-01-18T03:41:49.695Z,2
2023-01-18T03:47:07.253Z,2
2023-01-18T03:51:49.102Z,2
2023-01-18T03:56:49.631Z,3
2023-01-18T04:01:49.455Z,2
2023-01-18T04:06:49.165Z,3
2023-01-18T04:11:49.642Z,3
2023-01-18T04:16:49.150Z,2
2023-01-18T04:21:49.153Z,3
2023-01-18T04:26:49.193Z,3
2023-01-18T04:31:49.674Z,2
2023-01-18T04:36:49.685Z,3
2023-01-18T04:41:49.199Z,3
2023-01-18T04:46:49.750Z,3
2023-01-18T04:51:51.550Z,3
2023-01-18T04:57:03.714Z,3
2023-01-18T05:01:49.295Z,3
2023-01-18T05:06:49.287Z,3
2023-01-18T05:11:49.251Z,3
2023-01-18T05:16:49.263Z,3
2023-01-18T05:21:49.275Z,3
2023-01-18T05:26:49.913Z,3
2023-01-18T05:31:49.929Z,4
2023-01-18T05:36:49.318Z,4
2023-01-18T05:41:49.301Z,5
2023-01-18T05:46:49.945Z,5
2023-01-18T05:51:49.319Z,5
2023-01-18T05:56:49.935Z,6
2023-01-18T06:01:49.395Z,6
2023-01-18T06:06:50.001Z,4
2023-01-18T06:11:49.966Z,5
2023-01-18T06:16:49.363Z,6
2023-01-18T06:21:49.406Z,4
2023-01-18T06:26:49.448Z,3
2023-01-18T06:31:54.982Z,4
2023-01-18T06:36:50.018Z,6
2023-01-18T06:41:50.015Z,7
2023-01-18T06:46:50.056Z,3
2023-01-18T06:51:50.031Z,10
2023-01-18T06:56:50.040Z,4
2023-01-18T07:02:23.829Z,8
2023-01-18T07:06:54.911Z,11
2023-01-18T07:11:49.476Z,13
2023-01-18T07:16:49.566Z,13
2023-01-18T07:21:50.834Z,13
2023-01-18T07:26:49.509Z,14
2023-01-18T07:31:50.060Z,14
2023-01-18T07:36:49.487Z,14
2023-01-18T07:41:50.057Z,14
2023-01-18T07:46:50.031Z,11
2023-01-18T07:51:49.525Z,13
2023-01-18T07:56:49.528Z,15
2023-01-18T08:01:50.110Z,17
2023-01-18T08:06:49.560Z,14
2023-01-18T08:11:55.738Z,13
2023-01-18T08:16:50.187Z,14
2023-01-18T08:21:49.659Z,15
2023-01-18T08:26:50.092Z,16
2023-01-18T08:31:50.100Z,15
2023-01-18T08:36:50.099Z,13
2023-01-18T08:41:50.163Z,14
2023-01-18T08:47:07.623Z,14
2023-01-18T08:52:05.201Z,15
2023-01-18T08:56:50.136Z,14
2023-01-18T09:01:50.549Z,13
2023-01-18T09:06:50.175Z,14
2023-01-18T09:11:49.648Z,13
2023-01-18T09:16:50.170Z,14
2023-01-18T09:21:50.225Z,13
2023-01-18T09:26:50.191Z,14
2023-01-18T09:31:49.780Z,14
2023-01-18T09:36:50.214Z,14
2023-01-18T09:41:50.252Z,3
2023-01-18T09:46:52.626Z,6
2023-01-18T09:51:50.236Z,11
2023-01-18T09:56:49.738Z,13
2023-01-18T10:01:49.982Z,12
2023-01-18T10:06:56.414Z,11
2023-01-18T10:11:49.763Z,12
2023-01-18T10:16:49.775Z,5
2023-01-18T10:21:50.453Z,7
2023-01-18T10:26:50.402Z,5
2023-01-18T10:31:49.856Z,3
2023-01-18T10:36:49.837Z,3
2023-01-18T10:41:50.382Z,3
2023-01-18T10:46:50.337Z,3
2023-01-18T10:51:49.850Z,3
2023-01-18T10:56:50.343Z,3
2023-01-18T11:01:50.131Z,4
2023-01-18T11:06:49.886Z,5
2023-01-18T11:11:50.481Z,6
2023-01-18T11:16:49.878Z,7
2023-01-18T11:21:51.635Z,13
2023-01-18T11:26:50.159Z,11
2023-01-18T11:31:50.501Z,10
2023-01-18T11:36:49.922Z,14
2023-01-18T11:41:50.465Z,15
2023-01-18T11:46:50.442Z,8
2023-01-18T11:51:50.471Z,13
2023-01-18T11:56:49.947Z,15
2023-01-18T12:01:55.983Z,12
2023-01-18T12:06:51.115Z,15
2023-01-18T12:11:54.837Z,7
2023-01-18T12:16:50.249Z,9
2023-01-18T12:21:50.061Z,64
2023-01-18T12:26:50.007Z,9
2023-01-18T12:31:50.018Z,15
2023-01-18T12:36:50.539Z,15
2023-01-18T12:41:50.148Z,16
2023-01-18T12:46:50.033Z,6
2023-01-18T12:52:03.092Z,11
2023-01-18T12:56:50.573Z,42
2023-01-18T13:01:50.182Z,41
2023-01-18T13:06:50.066Z,7
2023-01-18T13:11:50.587Z,14
2023-01-18T13:17:05.124Z,13
2023-01-18T13:21:50.099Z,19
2023-01-18T13:26:50.103Z,14
2023-01-18T13:31:50.628Z,8
2023-01-18T13:36:50.690Z,4
2023-01-18T13:41:50.121Z,3
2023-01-18T13:46:50.137Z,3
2023-01-18T13:51:50.657Z,4
2023-01-18T13:56:50.361Z,3
2023-01-18T14:01:50.762Z,3
2023-01-18T14:06:50.172Z,3
2023-01-18T14:11:50.217Z,3
2023-01-18T14:16:50.218Z,3
2023-01-18T14:21:50.206Z,3
2023-01-18T14:26:50.212Z,4
2023-01-18T14:31:50.723Z,5
2023-01-18T14:36:50.762Z,7
2023-01-18T14:41:50.738Z,6
2023-01-18T14:46:50.375Z,6
2023-01-18T14:51:50.760Z,7
2023-01-18T14:56:50.800Z,7
2023-01-18T15:01:50.373Z,7
2023-01-18T15:06:50.279Z,5
2023-01-18T15:12:05.912Z,5
2023-01-18T15:16:50.292Z,8
2023-01-18T15:21:50.901Z,7
2023-01-18T15:26:50.307Z,6
2023-01-18T15:31:50.983Z,6
2023-01-18T15:36:50.939Z,5
2023-01-18T15:41:50.457Z,6
2023-01-18T15:46:50.348Z,6
2023-01-18T15:51:55.851Z,7
2023-01-18T15:56:50.367Z,6
2023-01-18T16:01:51.052Z,7
2023-01-18T16:06:50.384Z,7
2023-01-18T16:11:55.767Z,8
2023-01-18T16:16:50.463Z,7
2023-01-18T16:21:50.533Z,7
2023-01-18T16:26:50.911Z,7
2023-01-18T16:31:50.455Z,7
2023-01-18T16:36:50.422Z,8
2023-01-18T16:41:50.439Z,7
2023-01-18T16:47:22.325Z,12
2023-01-18T16:51:50.733Z,11
2023-01-18T16:56:50.967Z,14
2023-01-18T17:01:50.633Z,17
2023-01-18T17:06:51.020Z,16
2023-01-18T17:11:51.013Z,16
2023-01-18T17:16:50.652Z,16
2023-01-18T17:21:50.520Z,17
2023-01-18T17:26:56.022Z,18
2023-01-18T17:31:52.936Z,17
2023-01-18T17:36:51.050Z,19
2023-01-18T17:41:51.051Z,19
2023-01-18T17:46:51.204Z,18
2023-01-18T17:51:50.565Z,20
2023-01-18T17:56:50.565Z,20
2023-01-18T18:01:50.809Z,18
2023-01-18T18:06:54.266Z,18
2023-01-18T18:11:51.106Z,19
2023-01-18T18:16:50.630Z,21
2023-01-18T18:21:50.607Z,17
2023-01-18T18:26:56.072Z,18
2023-01-18T18:31:51.238Z,19
2023-01-18T18:36:51.254Z,20
2023-01-18T18:41:50.641Z,18
2023-01-18T18:46:51.436Z,18
2023-01-18T18:51:50.727Z,19
2023-01-18T18:56:50.680Z,19
2023-01-18T19:01:50.702Z,19
2023-01-18T19:06:56.230Z,16
2023-01-18T19:11:55.197Z,19
2023-01-18T19:16:50.714Z,19
2023-01-18T19:21:50.724Z,21
2023-01-18T19:26:51.414Z,18
2023-01-18T19:31:51.409Z,17
2023-01-18T19:37:06.413Z,19
2023-01-18T19:41:50.749Z,21
2023-01-18T19:46:51.655Z,21
2023-01-18T19:51:50.765Z,24
2023-01-18T19:56:51.425Z,22
2023-01-18T20:02:33.876Z,19
2023-01-18T20:06:52.004Z,23
2023-01-18T20:11:51.422Z,20
2023-01-18T20:16:51.421Z,22
2023-01-18T20:21:50.885Z,17
2023-01-18T20:26:51.495Z,17
2023-01-18T20:31:51.467Z,23
2023-01-18T20:36:50.860Z,22
2023-01-18T20:43:42.986Z,21
2023-01-18T20:46:50.870Z,22
2023-01-18T20:51:50.882Z,22
2023-01-18T20:56:50.871Z,17
2023-01-18T21:01:51.017Z,23
2023-01-18T21:06:51.539Z,18
2023-01-18T21:11:50.924Z,21
2023-01-18T21:16:51.625Z,19
2023-01-18T21:21:51.552Z,24
2023-01-18T21:26:50.958Z,18
2023-01-18T21:31:51.531Z,19
2023-01-18T21:36:51.691Z,24
2023-01-18T21:41:57.044Z,21
2023-01-18T21:46:50.998Z,25
2023-01-18T21:51:51.471Z,26
2023-01-18T21:56:51.074Z,31
2023-01-18T22:01:51.085Z,31
2023-01-18T22:06:50.995Z,30
2023-01-18T22:11:51.644Z,30
2023-01-18T22:16:51.636Z,31
2023-01-18T22:21:51.046Z,31
2023-01-18T22:26:51.051Z,29
2023-01-18T22:31:56.372Z,29
2023-01-18T22:36:51.050Z,30
2023-01-18T22:41:55.813Z,29
2023-01-18T22:46:51.070Z,26
2023-01-18T22:51:51.112Z,19
2023-01-18T22:56:51.091Z,24
2023-01-18T23:01:51.701Z,18
2023-01-18T23:06:51.647Z,19
2023-01-18T23:11:53.432Z,19
2023-01-18T23:16:51.630Z,19
2023-01-18T23:21:51.160Z,20
2023-01-18T23:26:51.137Z,28
2023-01-18T23:31:51.149Z,30
2023-01-18T23:36:51.159Z,23
2023-01-18T23:41:51.216Z,27
2023-01-18T23:46:51.181Z,29
2023-01-18T23:51:52.509Z,30
2023-01-18T23:57:34.030Z,29
